createdAt,value
2023-05-01T00:02:02.499Z,6.57
2023-05-01T00:04:29.530Z,6.63
2023-05-01T00:06:56.311Z,6.33
2023-05-01T00:09:23.183Z,6.53
2023-05-01T00:11:50.055Z,6.50
2023-05-01T00:14:16.893Z,6.80
2023-05-01T00:16:43.799Z,5.87
2023-05-01T00:19:12.723Z,9.13
2023-05-01T00:21:39.602Z,7.00
2023-05-01T00:24:06.385Z,6.27
2023-05-01T00:26:33.272Z,5.70
2023-05-01T00:29:00.528Z,5.00
2023-05-01T00:31:27.387Z,4.90
2023-05-01T00:33:54.370Z,5.67
2023-05-01T00:36:21.493Z,5.13
2023-05-01T00:38:48.381Z,4.57
2023-05-01T00:41:15.177Z,4.70
2023-05-01T00:43:42.339Z,4.50
2023-05-01T00:46:09.904Z,5.13
2023-05-01T00:48:36.980Z,5.53
2023-05-01T00:51:06.162Z,5.33
2023-05-01T00:53:36.283Z,5.27
2023-05-01T00:56:04.428Z,4.97
2023-05-01T00:58:31.414Z,5.43
2023-05-01T01:00:58.324Z,5.63
2023-05-01T01:03:25.193Z,5.73
2023-05-01T01:06:05.297Z,5.30
2023-05-01T01:08:44.140Z,5.40
2023-05-01T01:11:14.003Z,5.27
2023-05-01T01:13:47.812Z,5.67
2023-05-01T01:16:14.631Z,6.47
2023-05-01T01:18:53.362Z,6.63
2023-05-01T01:21:39.762Z,6.87
2023-05-01T01:24:15.874Z,7.10
2023-05-01T01:26:58.883Z,7.30
2023-05-01T01:29:50.537Z,7.63
2023-05-01T01:32:36.149Z,8.23
2023-05-01T01:35:13.069Z,8.60
2023-05-01T01:37:44.088Z,8.73
2023-05-01T01:40:14.237Z,8.50
2023-05-01T01:42:43.267Z,8.93
2023-05-01T01:45:15.595Z,8.77
2023-05-01T01:47:43.491Z,8.70
2023-05-01T01:50:11.172Z,7.70
2023-05-01T01:52:39.206Z,6.77
2023-05-01T01:55:09.068Z,6.20
2023-05-01T01:57:37.235Z,5.73
2023-05-01T02:00:09.098Z,6.50
2023-05-01T02:02:41.230Z,6.17
2023-05-01T02:05:11.803Z,5.97
2023-05-01T02:07:40.444Z,6.03
2023-05-01T02:10:08.737Z,5.80
2023-05-01T02:12:37.052Z,5.87
2023-05-01T02:15:05.261Z,5.97
2023-05-01T02:17:32.618Z,5.50
2023-05-01T02:19:59.909Z,5.70
2023-05-01T02:22:27.482Z,5.93
2023-05-01T02:24:54.988Z,6.00
2023-05-01T02:27:23.966Z,7.80
2023-05-01T02:29:54.239Z,6.60
2023-05-01T02:32:21.429Z,6.13
2023-05-01T02:34:49.163Z,6.83
2023-05-01T02:37:16.778Z,7.00
2023-05-01T02:39:45.276Z,7.67
2023-05-01T02:42:13.501Z,8.10
2023-05-01T02:44:42.086Z,10.10
2023-05-01T02:47:10.330Z,9.60
2023-05-01T02:49:39.540Z,9.77
2023-05-01T02:52:06.889Z,10.07
2023-05-01T02:54:34.791Z,10.33
2023-05-01T02:57:03.963Z,10.40
2023-05-01T02:59:30.887Z,9.50
2023-05-01T03:01:58.297Z,9.37
2023-05-01T03:04:25.691Z,10.23
2023-05-01T03:06:52.581Z,9.93
2023-05-01T03:09:19.646Z,9.90
2023-05-01T03:11:46.813Z,11.10
2023-05-01T03:14:14.061Z,10.27
2023-05-01T03:16:41.393Z,9.93
2023-05-01T03:19:08.386Z,10.17
2023-05-01T03:21:35.158Z,9.60
2023-05-01T03:24:02.074Z,9.70
2023-05-01T03:26:30.326Z,10.07
2023-05-01T03:28:57.167Z,10.10
2023-05-01T03:31:24.312Z,10.07
2023-05-01T03:33:51.372Z,9.97
2023-05-01T03:36:18.131Z,9.63
2023-05-01T03:38:47.601Z,9.40
2023-05-01T03:41:33.116Z,8.80
2023-05-01T03:44:19.673Z,9.90
2023-05-01T03:46:47.448Z,9.23
2023-05-01T03:49:20.754Z,11.57
2023-05-01T03:51:49.041Z,9.83
2023-05-01T03:54:16.157Z,10.60
2023-05-01T03:57:05.804Z,9.67
2023-05-01T03:59:32.691Z,10.23
2023-05-01T04:01:59.556Z,11.73
2023-05-01T04:04:30.094Z,13.30
2023-05-01T04:06:58.481Z,12.57
2023-05-01T04:09:25.741Z,13.80
2023-05-01T04:11:52.511Z,14.50
2023-05-01T04:14:19.308Z,15.70
2023-05-01T04:16:46.247Z,15.93
2023-05-01T04:19:16.429Z,14.57
2023-05-01T04:21:46.308Z,15.77
2023-05-01T04:24:13.447Z,15.77
2023-05-01T04:26:40.632Z,12.83
2023-05-01T04:29:09.044Z,13.97
2023-05-01T04:31:36.340Z,13.57
2023-05-01T04:34:03.378Z,14.13
2023-05-01T04:36:33.073Z,15.50
2023-05-01T04:39:00.208Z,16.83
2023-05-01T04:41:27.361Z,15.63
2023-05-01T04:43:54.249Z,14.23
2023-05-01T04:46:21.720Z,14.47
2023-05-01T04:48:48.681Z,14.17
2023-05-01T04:51:15.445Z,13.73
2023-05-01T04:53:42.288Z,13.13
2023-05-01T04:56:19.466Z,14.07
2023-05-01T04:58:47.959Z,14.20
2023-05-01T05:01:19.632Z,13.80
2023-05-01T05:03:49.624Z,15.23
2023-05-01T05:06:17.125Z,13.47
2023-05-01T05:08:44.043Z,13.90
2023-05-01T05:11:11.634Z,14.00
2023-05-01T05:14:01.400Z,13.23
2023-05-01T05:16:28.459Z,12.93
2023-05-01T05:18:56.349Z,12.17
2023-05-01T05:21:25.167Z,11.33
2023-05-01T05:23:55.458Z,10.17
2023-05-01T05:26:22.412Z,8.27
2023-05-01T05:28:51.071Z,6.10
2023-05-01T05:31:18.045Z,5.57
2023-05-01T05:33:44.924Z,5.40
2023-05-01T05:36:13.027Z,5.00
2023-05-01T05:38:42.724Z,5.53
2023-05-01T05:41:13.728Z,5.37
2023-05-01T05:43:40.558Z,5.17
2023-05-01T05:46:08.629Z,5.83
2023-05-01T05:48:37.090Z,5.93
2023-05-01T05:51:04.593Z,6.60
2023-05-01T05:53:31.742Z,5.83
2023-05-01T05:55:58.958Z,5.67
2023-05-01T05:58:25.867Z,4.73
2023-05-01T06:00:58.840Z,5.20
2023-05-01T06:03:27.522Z,4.50
2023-05-01T06:05:58.882Z,4.40
2023-05-01T06:08:25.865Z,4.50
2023-05-01T06:10:52.648Z,4.43
2023-05-01T06:13:19.643Z,4.07
2023-05-01T06:15:49.188Z,4.00
2023-05-01T06:18:16.441Z,3.67
2023-05-01T06:20:43.582Z,3.43
2023-05-01T06:23:10.921Z,3.87
2023-05-01T06:25:43.290Z,3.73
2023-05-01T06:28:10.075Z,3.50
2023-05-01T06:30:37.296Z,4.20
2023-05-01T06:33:04.631Z,3.63
2023-05-01T06:35:32.525Z,4.07
2023-05-01T06:38:00.447Z,3.80
2023-05-01T06:40:27.382Z,3.10
2023-05-01T06:42:54.906Z,3.53
2023-05-01T06:45:28.212Z,2.83
2023-05-01T06:47:55.110Z,3.07
2023-05-01T06:50:21.964Z,3.13
2023-05-01T06:52:48.765Z,0.87
2023-05-01T06:55:15.671Z,2.10
2023-05-01T06:57:43.034Z,0.80
2023-05-01T07:00:11.056Z,0.83
2023-05-01T07:02:38.490Z,2.37
2023-05-01T07:05:05.870Z,2.03
2023-05-01T07:07:32.702Z,2.20
2023-05-01T07:09:59.837Z,2.50
2023-05-01T07:12:26.996Z,2.60
2023-05-01T07:14:53.828Z,2.33
2023-05-01T07:17:20.677Z,2.70
2023-05-01T07:19:47.575Z,1.97
2023-05-01T07:22:14.350Z,1.20
2023-05-01T07:24:41.200Z,1.43
2023-05-01T07:27:08.249Z,0.70
2023-05-01T07:29:36.777Z,2.40
2023-05-01T07:32:06.120Z,2.40
2023-05-01T07:34:33.197Z,1.93
2023-05-01T07:37:00.103Z,1.90
2023-05-01T07:39:27.057Z,2.73
2023-05-01T07:41:53.862Z,3.17
2023-05-01T07:44:21.131Z,2.73
2023-05-01T07:46:48.021Z,2.20
2023-05-01T07:49:14.763Z,1.00
2023-05-01T07:51:42.513Z,2.77
2023-05-01T07:54:09.276Z,2.53
2023-05-01T07:56:36.102Z,2.60
2023-05-01T07:59:03.021Z,2.43
2023-05-01T08:01:29.952Z,2.50
2023-05-01T08:03:56.896Z,2.90
2023-05-01T08:06:23.812Z,2.57
2023-05-01T08:08:50.837Z,2.10
2023-05-01T08:11:17.673Z,1.27
2023-05-01T10:21:23.997Z,2.60
2023-05-01T10:23:51.959Z,1.97
2023-05-01T10:26:19.268Z,2.20
2023-05-01T10:28:47.451Z,0.50
2023-05-01T10:31:14.449Z,0.60
2023-05-01T10:33:41.729Z,1.97
2023-05-01T10:36:11.720Z,0.60
2023-05-01T10:38:38.559Z,2.23
2023-05-01T10:41:07.106Z,1.80
2023-05-01T10:43:33.906Z,1.47
2023-05-01T10:46:21.838Z,1.53
2023-05-01T10:48:51.798Z,1.47
2023-05-01T10:51:20.716Z,1.67
2023-05-01T10:53:48.560Z,0.77
2023-05-01T10:56:30.287Z,1.70
2023-05-01T10:59:01.066Z,1.47
2023-05-01T11:01:28.331Z,0.70
2023-05-01T11:03:56.090Z,1.40
2023-05-01T11:06:24.231Z,1.13
2023-05-01T11:08:51.387Z,0.30
2023-05-01T11:11:23.963Z,1.00
2023-05-01T11:14:04.342Z,1.30
2023-05-01T11:16:35.912Z,1.13
2023-05-01T11:19:02.764Z,1.07
2023-05-01T11:21:30.561Z,1.70
2023-05-01T11:23:57.596Z,0.90
2023-05-01T11:26:24.474Z,0.97
2023-05-01T11:28:54.235Z,1.53
2023-05-01T11:31:21.353Z,1.60
2023-05-01T11:33:48.175Z,0.50
2023-05-01T11:36:14.996Z,1.17
2023-05-01T11:38:54.600Z,1.90
2023-05-01T11:41:21.728Z,1.07
2023-05-01T11:43:54.444Z,0.40
2023-05-01T11:46:28.635Z,1.27
2023-05-01T11:48:56.534Z,1.70
2023-05-01T11:51:23.674Z,1.60
2023-05-01T11:54:04.201Z,0.90
2023-05-01T11:56:31.792Z,2.00
2023-05-01T11:58:59.873Z,1.60
2023-05-01T12:01:36.771Z,1.53
2023-05-01T12:04:04.374Z,0.83
2023-05-01T12:06:46.846Z,0.97
2023-05-01T12:09:17.427Z,1.47
2023-05-01T12:11:44.783Z,1.10
2023-05-01T12:14:11.925Z,1.40
2023-05-01T12:16:40.650Z,1.40
2023-05-01T12:19:07.735Z,1.70
2023-05-01T12:21:35.413Z,2.00
2023-05-01T12:24:12.574Z,2.30
2023-05-01T12:26:39.808Z,1.00
2023-05-01T12:29:07.874Z,0.67
2023-05-01T12:31:35.327Z,0.80
2023-05-01T12:34:06.239Z,1.10
2023-05-01T12:36:36.710Z,0.53
2023-05-01T12:39:07.476Z,2.10
2023-05-01T12:41:37.224Z,2.10
2023-05-01T12:44:23.369Z,1.07
2023-05-01T12:46:54.154Z,1.27
2023-05-01T12:49:21.508Z,1.50
2023-05-01T12:51:48.932Z,2.10
2023-05-01T12:54:20.609Z,2.00
2023-05-01T12:56:47.622Z,1.83
2023-05-01T12:59:24.934Z,1.40
2023-05-01T13:02:02.052Z,1.10
2023-05-01T13:04:29.341Z,2.00
2023-05-01T13:06:57.020Z,2.03
2023-05-01T13:09:24.711Z,1.57
2023-05-01T13:12:02.455Z,2.53
2023-05-01T13:14:30.867Z,0.53
2023-05-01T13:16:57.942Z,0.87
2023-05-01T13:19:26.857Z,0.73
2023-05-01T13:21:53.830Z,1.23
2023-05-01T13:24:20.636Z,2.80
2023-05-01T13:26:47.528Z,1.20
2023-05-01T13:29:15.624Z,1.43
2023-05-01T13:31:43.351Z,1.57
2023-05-01T13:34:10.281Z,1.40
2023-05-01T13:36:37.410Z,1.23
2023-05-01T13:39:04.375Z,0.83
2023-05-01T13:41:31.224Z,1.00
2023-05-01T13:43:58.132Z,1.90
2023-05-01T13:46:26.623Z,1.07
2023-05-01T13:48:53.728Z,1.60
2023-05-01T13:51:22.563Z,1.17
2023-05-01T13:53:49.483Z,1.07
2023-05-01T13:56:16.547Z,1.80
2023-05-01T13:58:43.388Z,1.40
2023-05-01T14:01:15.252Z,1.77
2023-05-01T14:03:42.736Z,0.33
2023-05-01T14:06:16.957Z,1.40
2023-05-01T14:08:44.914Z,1.43
2023-05-01T14:11:12.628Z,2.23
2023-05-01T14:13:46.536Z,1.27
2023-05-01T14:16:31.932Z,1.90
2023-05-01T14:18:58.932Z,1.70
2023-05-01T14:21:28.241Z,2.03
2023-05-01T14:23:55.863Z,1.77
2023-05-01T14:26:24.234Z,1.93
2023-05-01T14:28:51.136Z,1.50
2023-05-01T14:31:25.492Z,1.50
2023-05-01T14:33:59.796Z,2.27
2023-05-01T14:36:28.488Z,2.03
2023-05-01T14:38:58.764Z,1.47
2023-05-01T14:41:26.003Z,0.73
2023-05-01T14:43:56.266Z,2.30
2023-05-01T14:46:34.021Z,3.10
2023-05-01T14:49:01.710Z,2.40
2023-05-01T14:51:29.467Z,2.50
2023-05-01T14:53:56.425Z,1.53
2023-05-01T14:56:23.448Z,1.83
2023-05-01T14:58:50.292Z,1.00
2023-05-01T15:01:18.339Z,2.30
2023-05-01T15:03:45.617Z,2.43
2023-05-01T15:06:12.736Z,4.10
2023-05-01T15:08:39.936Z,2.47
2023-05-01T15:11:06.849Z,2.13
2023-05-01T15:13:33.625Z,0.70
2023-05-01T15:16:00.778Z,1.80
2023-05-01T15:18:27.767Z,2.00
2023-05-01T15:20:54.518Z,0.67
2023-05-01T15:23:21.606Z,0.60
2023-05-01T15:25:50.745Z,1.87
2023-05-01T15:28:17.769Z,1.90
2023-05-01T15:30:46.572Z,0.60
2023-05-01T15:33:16.945Z,1.33
2023-05-01T15:35:46.261Z,2.00
2023-05-01T15:38:13.105Z,2.73
2023-05-01T15:40:40.094Z,1.97
2023-05-01T15:43:06.871Z,3.10
2023-05-01T15:45:34.025Z,2.20
2023-05-01T15:48:01.373Z,2.23
2023-05-01T15:50:28.464Z,1.80
2023-05-01T15:52:55.417Z,2.33
2023-05-01T15:55:22.195Z,2.60
2023-05-01T15:57:49.087Z,2.30
2023-05-01T16:00:16.975Z,2.70
2023-05-01T16:02:44.825Z,2.73
2023-05-01T16:05:12.464Z,2.27
2023-05-01T16:07:39.706Z,2.67
2023-05-01T16:10:07.826Z,3.07
2023-05-01T16:12:34.719Z,2.77
2023-05-01T16:15:02.842Z,2.80
2023-05-01T16:17:31.509Z,2.43
2023-05-01T16:20:00.306Z,2.60
2023-05-01T16:22:28.464Z,2.67
2023-05-01T16:24:55.321Z,2.27
2023-05-01T16:27:22.114Z,2.40
2023-05-01T16:29:49.209Z,2.63
2023-05-01T16:32:16.924Z,2.77
2023-05-01T16:34:44.289Z,3.07
2023-05-01T16:37:13.333Z,2.27
2023-05-01T16:39:40.196Z,3.03
2023-05-01T16:42:07.015Z,1.40
2023-05-01T16:44:35.844Z,2.87
2023-05-01T16:47:03.646Z,2.10
2023-05-01T16:49:30.461Z,2.40
2023-05-01T16:51:58.724Z,2.97
2023-05-01T16:54:32.206Z,2.27
2023-05-01T16:56:59.496Z,3.10
2023-05-01T16:59:28.176Z,2.80
2023-05-01T17:01:55.112Z,2.50
2023-05-01T17:04:22.418Z,3.20
2023-05-01T17:06:49.479Z,3.10
2023-05-01T17:09:16.337Z,2.90
2023-05-01T17:11:57.091Z,2.77
2023-05-01T17:14:24.017Z,2.70
2023-05-01T17:16:50.879Z,2.90
2023-05-01T17:19:17.870Z,2.97
2023-05-01T17:21:44.624Z,3.23
2023-05-01T17:24:13.423Z,3.30
2023-05-01T17:26:40.301Z,2.90
2023-05-01T17:29:07.148Z,2.83
2023-05-01T17:31:34.042Z,2.90
2023-05-01T17:34:00.934Z,2.93
2023-05-01T17:36:29.306Z,3.47
2023-05-01T17:38:56.464Z,2.70
2023-05-01T17:41:24.915Z,3.27
2023-05-01T17:43:51.699Z,4.40
2023-05-01T17:46:18.687Z,3.23
2023-05-01T17:48:45.765Z,3.27
2023-05-01T17:51:14.223Z,3.30
2023-05-01T17:53:41.665Z,3.10
2023-05-01T17:56:09.172Z,3.30
2023-05-01T17:58:36.091Z,2.97
2023-05-01T18:01:04.837Z,3.40
2023-05-01T18:03:34.691Z,3.50
2023-05-01T18:06:02.214Z,2.83
2023-05-01T18:08:29.131Z,3.27
2023-05-01T18:10:56.136Z,2.93
2023-05-01T18:13:28.244Z,3.57
2023-05-01T18:15:55.905Z,9.07
2023-05-01T18:18:22.981Z,6.10
2023-05-01T18:20:50.010Z,4.60
2023-05-01T18:23:17.942Z,4.97
2023-05-01T18:25:45.739Z,4.73
2023-05-01T18:28:12.982Z,8.10
2023-05-01T18:30:39.851Z,4.77
2023-05-01T18:33:06.752Z,14.00
2023-05-01T18:35:33.827Z,12.70
2023-05-01T18:38:00.743Z,5.37
2023-05-01T18:40:27.942Z,5.67
2023-05-01T18:42:54.862Z,4.47
2023-05-01T18:45:21.825Z,3.70
2023-05-01T18:47:48.746Z,3.70
2023-05-01T18:50:17.192Z,3.87
2023-05-01T18:52:44.020Z,9.10
2023-05-01T18:55:11.761Z,5.20
2023-05-01T18:57:38.696Z,4.10
2023-05-01T19:00:06.718Z,10.00
2023-05-01T19:02:33.539Z,4.10
2023-05-01T19:05:00.487Z,4.70
2023-05-01T19:07:27.314Z,5.07
2023-05-01T19:09:54.248Z,3.87
2023-05-01T19:12:21.032Z,4.60
2023-05-01T19:14:47.903Z,4.43
2023-05-01T19:17:14.990Z,4.27
2023-05-01T19:19:41.748Z,4.20
2023-05-01T19:22:08.615Z,3.77
2023-05-01T19:24:35.632Z,3.50
2023-05-01T19:27:03.518Z,3.60
2023-05-01T19:29:33.660Z,3.70
2023-05-01T19:32:00.793Z,4.63
2023-05-01T19:34:28.070Z,4.23
2023-05-01T19:36:57.189Z,3.73
2023-05-01T19:39:24.011Z,4.13
2023-05-01T19:41:51.134Z,5.13
2023-05-01T19:44:18.181Z,4.10
2023-05-01T19:46:45.211Z,3.93
2023-05-01T19:49:12.262Z,3.97
2023-05-01T19:51:39.018Z,4.10
2023-05-01T19:54:05.787Z,4.23
2023-05-01T19:56:32.747Z,3.30
2023-05-01T19:58:59.493Z,3.57
2023-05-01T20:01:26.468Z,3.67
2023-05-01T20:03:53.370Z,3.93
2023-05-01T20:06:20.219Z,3.67
2023-05-01T20:08:48.535Z,3.87
2023-05-01T20:11:15.382Z,4.03
2023-05-01T20:13:42.155Z,3.93
2023-05-01T20:16:10.226Z,4.07
2023-05-01T20:18:37.413Z,4.00
2023-05-01T20:21:06.158Z,3.33
2023-05-01T20:23:33.014Z,3.80
2023-05-01T20:25:59.969Z,3.60
2023-05-01T20:28:27.142Z,3.90
2023-05-01T20:30:54.358Z,4.03
2023-05-01T20:33:21.150Z,3.80
2023-05-01T20:35:48.084Z,4.40
2023-05-01T20:38:14.832Z,4.50
2023-05-01T20:40:42.480Z,3.80
2023-05-01T20:43:09.278Z,3.67
2023-05-01T20:45:36.178Z,4.23
2023-05-01T20:48:03.053Z,3.47
2023-05-01T20:50:29.849Z,3.70
2023-05-01T20:52:56.681Z,3.97
2023-05-01T20:55:23.887Z,4.13
2023-05-01T20:57:50.811Z,4.03
2023-05-01T21:00:17.655Z,3.80
2023-05-01T21:02:44.791Z,4.83
2023-05-01T21:05:11.909Z,3.97
2023-05-01T21:07:39.712Z,4.43
2023-05-01T21:10:07.007Z,5.43
2023-05-01T21:12:33.899Z,5.20
2023-05-01T21:15:00.745Z,5.13
2023-05-01T21:17:27.833Z,5.53
2023-05-01T21:19:54.683Z,6.57
2023-05-01T21:22:22.354Z,12.23
2023-05-01T21:24:53.253Z,8.10
2023-05-01T21:27:20.574Z,6.60
2023-05-01T21:29:53.042Z,9.83
2023-05-01T21:32:19.856Z,9.27
2023-05-01T21:34:46.732Z,5.40
2023-05-01T21:37:18.713Z,5.33
2023-05-01T21:39:46.017Z,6.13
2023-05-01T21:42:14.514Z,5.60
2023-05-01T21:44:41.470Z,5.03
2023-05-01T21:47:09.078Z,5.77
2023-05-01T21:49:38.202Z,5.27
2023-05-01T21:52:05.341Z,5.50
2023-05-01T21:54:33.037Z,6.00
2023-05-01T21:57:00.915Z,6.13
2023-05-01T21:59:32.741Z,5.90
2023-05-01T22:01:59.569Z,5.70
2023-05-01T22:04:26.349Z,5.90
2023-05-01T22:06:53.233Z,5.90
2023-05-01T22:09:20.623Z,6.33
2023-05-01T22:11:47.433Z,5.70
2023-05-01T22:14:14.301Z,5.73
2023-05-01T22:16:41.602Z,5.13
2023-05-01T22:19:08.634Z,5.47
2023-05-01T22:21:35.547Z,5.40
2023-05-01T22:24:03.226Z,5.60
2023-05-01T22:26:30.141Z,5.80
2023-05-01T22:28:57.036Z,5.60
2023-05-01T22:31:23.871Z,5.63
2023-05-01T22:33:50.825Z,6.20
2023-05-01T22:36:17.592Z,5.80
2023-05-01T22:38:44.473Z,6.10
2023-05-01T22:41:11.789Z,5.80
2023-05-01T22:43:39.595Z,6.67
2023-05-01T22:46:06.830Z,6.60
2023-05-01T22:48:33.674Z,6.37
2023-05-01T22:51:00.665Z,6.70
2023-05-01T22:53:28.652Z,6.30
2023-05-01T22:55:55.668Z,6.23
2023-05-01T22:58:22.518Z,6.00
2023-05-01T23:00:49.308Z,6.00
2023-05-01T23:03:16.260Z,6.30
2023-05-01T23:05:43.946Z,5.97
2023-05-01T23:08:10.687Z,5.57
2023-05-01T23:10:40.690Z,6.07
2023-05-01T23:13:22.262Z,6.13
2023-05-01T23:15:53.009Z,5.63
2023-05-01T23:18:30.584Z,6.43
2023-05-01T23:20:57.552Z,6.90
2023-05-01T23:23:28.205Z,6.37
2023-05-01T23:25:55.367Z,7.00
2023-05-01T23:28:26.142Z,6.27
2023-05-01T23:30:56.674Z,6.13
2023-05-01T23:33:37.969Z,6.33
2023-05-01T23:36:06.760Z,5.70
2023-05-01T23:38:33.514Z,6.27
2023-05-01T23:41:00.436Z,6.37
2023-05-01T23:43:27.258Z,6.53
2023-05-01T23:45:54.162Z,6.50
2023-05-01T23:48:21.157Z,6.67
2023-05-01T23:50:47.938Z,7.17
2023-05-01T23:53:15.289Z,7.43
2023-05-01T23:55:43.592Z,6.50
2023-05-01T23:58:12.118Z,6.80
